Time;durP1;ratioP1;P1;durP2;ratioP2;P2;SDS_P1;SDS_P2;PMS_P1;PMS_P2;Temp;Humidity;BMP_temperature;BMP_pressure;BME280_temperature;BME280_humidity;BME280_pressure;Samples;Min_cycle;Max_cycle;Signal;HPM_P1;HPM_P2
2024/01/07 00:01:49;;;;;;;6.13;4.47;;;6.20;66.30;;;;;;5129108;27;20027;-74
2024/01/07 00:04:16;;;;;;;6.95;4.65;;;6.10;66.20;;;;;;5104114;27;20382;-75
2024/01/07 00:06:42;;;;;;;6.28;4.93;;;6.10;66.10;;;;;;5102528;28;20028;-75
2024/01/07 00:09:08;;;;;;;6.82;4.90;;;6.10;66.10;;;;;;5116489;28;20030;-75
2024/01/07 00:11:33;;;;;;;6.53;4.75;;;6.10;66.00;;;;;;5135976;27;20457;-74
2024/01/07 00:13:59;;;;;;;5.93;4.68;;;6.00;66.00;;;;;;5135735;27;20041;-75
2024/01/07 00:16:25;;;;;;;6.55;5.03;;;6.00;66.00;;;;;;5114241;28;20024;-74
2024/01/07 00:18:51;;;;;;;6.80;5.15;;;5.90;65.90;;;;;;5115136;28;20076;-75
2024/01/07 00:21:16;;;;;;;5.95;4.47;;;5.90;65.80;;;;;;5113744;28;20024;-74
2024/01/07 00:23:42;;;;;;;6.40;4.97;;;5.90;65.80;;;;;;5096506;28;20036;-75
2024/01/07 00:26:09;;;;;;;6.85;5.03;;;5.90;66.10;;;;;;5114807;28;20031;-75
2024/01/07 00:28:35;;;;;;;5.32;4.63;;;5.90;65.70;;;;;;5113689;28;20453;-74
2024/01/07 00:31:01;;;;;;;5.85;4.40;;;5.80;65.60;;;;;;5114866;28;20024;-75
2024/01/07 00:33:27;;;;;;;6.50;5.07;;;5.80;65.50;;;;;;5113478;28;20031;-75
2024/01/07 00:35:52;;;;;;;6.15;5.03;;;5.80;65.50;;;;;;5114866;28;20027;-74
2024/01/07 00:38:18;;;;;;;6.25;4.80;;;5.80;65.40;;;;;;5113412;28;20030;-75
2024/01/07 00:40:44;;;;;;;7.35;5.43;;;5.70;65.40;;;;;;5114395;28;20059;-74
2024/01/07 00:43:10;;;;;;;6.50;4.75;;;5.70;65.30;;;;;;5113451;28;20031;-75
2024/01/07 00:45:36;;;;;;;6.90;5.20;;;5.60;65.30;;;;;;5116791;27;20034;-75
2024/01/07 00:48:02;;;;;;;6.25;4.85;;;5.60;65.20;;;;;;5116586;27;20027;-75
2024/01/07 00:50:28;;;;;;;5.93;5.00;;;5.60;65.20;;;;;;5116433;27;20023;-74
2024/01/07 00:52:54;;;;;;;7.30;5.55;;;5.60;65.20;;;;;;5130293;27;20469;-73
2024/01/07 00:55:19;;;;;;;6.35;5.00;;;5.50;65.10;;;;;;5101512;28;20041;-74
2024/01/07 00:57:45;;;;;;;7.68;5.35;;;5.50;65.10;;;;;;5113464;27;20400;-75
2024/01/07 01:00:12;;;;;;;7.45;4.78;;;5.50;65.10;;;;;;5104345;28;20027;-74
2024/01/07 01:02:37;;;;;;;6.28;5.13;;;5.50;65.10;;;;;;5131360;27;20133;-75
2024/01/07 01:05:04;;;;;;;5.90;4.90;;;5.50;65.00;;;;;;5128820;27;20098;-74
2024/01/07 01:07:30;;;;;;;6.82;5.18;;;5.50;65.00;;;;;;5101411;27;20024;-75
2024/01/07 01:09:55;;;;;;;6.00;4.82;;;5.50;64.90;;;;;;5120952;27;20511;-75
2024/01/07 01:12:21;;;;;;;6.82;5.30;;;5.50;64.90;;;;;;5131057;27;20031;-75
2024/01/07 01:14:47;;;;;;;6.22;5.00;;;5.50;64.90;;;;;;5103589;28;20085;-74
2024/01/07 01:17:13;;;;;;;5.97;5.13;;;5.50;64.80;;;;;;5119110;27;20068;-75
2024/01/07 01:19:38;;;;;;;6.40;4.93;;;5.50;64.80;;;;;;5134027;27;20026;-75
2024/01/07 01:22:04;;;;;;;7.57;4.97;;;5.50;65.30;;;;;;5133851;28;20023;-75
2024/01/07 01:24:30;;;;;;;6.43;5.15;;;5.50;64.70;;;;;;5128318;27;20128;-74
2024/01/07 01:26:56;;;;;;;6.50;5.45;;;5.40;64.60;;;;;;5098896;28;20101;-74
2024/01/07 01:29:21;;;;;;;6.03;5.18;;;5.50;64.70;;;;;;5130841;27;20076;-74
2024/01/07 01:31:47;;;;;;;6.63;5.00;;;5.50;64.60;;;;;;5123305;28;20024;-74
2024/01/07 01:34:13;;;;;;;6.53;4.88;;;5.50;64.50;;;;;;5104171;28;20042;-74
2024/01/07 01:36:39;;;;;;;6.95;4.63;;;5.50;64.50;;;;;;5096911;28;20119;-75
2024/01/07 01:39:04;;;;;;;7.88;4.75;;;5.40;64.50;;;;;;5098773;28;20055;-74
2024/01/07 01:41:30;;;;;;;6.82;5.05;;;5.50;64.50;;;;;;5128139;28;20080;-73
2024/01/07 01:44:00;;;;;;;6.47;4.70;;;5.50;64.40;;;;;;5132970;27;20076;-75
2024/01/07 01:46:28;;;;;;;6.03;5.07;;;5.50;64.30;;;;;;5103021;28;20028;-74
2024/01/07 01:48:55;;;;;;;6.20;5.00;;;5.50;64.30;;;;;;5125272;27;20026;-74
2024/01/07 01:51:21;;;;;;;6.38;4.90;;;5.50;64.30;;;;;;5113643;28;20031;-75
2024/01/07 01:53:49;;;;;;;6.40;4.85;;;5.40;64.20;;;;;;5122074;28;20092;-74
2024/01/07 01:56:20;;;;;;;5.63;4.80;;;5.40;64.10;;;;;;5134522;28;20019;-74
2024/01/07 01:58:47;;;;;;;5.45;4.55;;;5.40;64.10;;;;;;5127540;27;20392;-74
2024/01/07 02:01:13;;;;;;;6.35;4.70;;;5.40;64.00;;;;;;5103030;28;20073;-74
2024/01/07 02:03:39;;;;;;;6.68;5.05;;;5.40;63.90;;;;;;5114145;28;20051;-74
2024/01/07 02:06:05;;;;;;;6.35;4.60;;;5.40;63.80;;;;;;5120976;28;20028;-75
2024/01/07 02:08:32;;;;;;;5.55;4.57;;;5.40;63.80;;;;;;5120043;27;20019;-74
2024/01/07 02:10:58;;;;;;;5.88;4.38;;;5.40;63.70;;;;;;5099696;27;20061;-76
2024/01/07 02:13:23;;;;;;;5.60;4.28;;;5.30;63.60;;;;;;5103421;28;20075;-75
2024/01/07 02:15:49;;;;;;;5.85;4.15;;;5.30;63.60;;;;;;5134332;27;20026;-73
2024/01/07 02:18:15;;;;;;;5.35;4.07;;;5.30;63.60;;;;;;5103195;27;20092;-74
2024/01/07 02:20:41;;;;;;;5.00;4.50;;;5.30;63.60;;;;;;5108596;27;20111;-76
2024/01/07 02:23:07;;;;;;;5.70;4.78;;;5.20;63.50;;;;;;5114828;28;20392;-74
2024/01/07 02:25:36;;;;;;;5.07;4.30;;;5.20;63.50;;;;;;5125081;27;20105;-75
2024/01/07 02:28:02;;;;;;;5.35;4.20;;;5.20;63.60;;;;;;5125450;27;20066;-73
2024/01/07 02:30:28;;;;;;;4.72;4.15;;;5.30;63.50;;;;;;5102067;27;20446;-75
2024/01/07 02:32:54;;;;;;;5.13;4.40;;;5.20;63.40;;;;;;5119010;27;20370;-74
2024/01/07 02:35:22;;;;;;;4.80;4.25;;;5.20;63.30;;;;;;5134928;27;20460;-74
2024/01/07 02:37:48;;;;;;;5.28;4.22;;;5.20;63.30;;;;;;5098821;28;20423;-76
2024/01/07 02:40:13;;;;;;;5.85;4.53;;;5.20;63.20;;;;;;5122440;27;20022;-74
2024/01/07 02:42:39;;;;;;;4.38;3.70;;;5.20;63.10;;;;;;5117028;27;20102;-75
2024/01/07 02:45:05;;;;;;;5.18;4.40;;;5.20;63.10;;;;;;5136523;27;20385;-73
2024/01/07 02:47:31;;;;;;;5.28;4.13;;;5.20;63.10;;;;;;5130312;27;20028;-73
2024/01/07 02:49:57;;;;;;;5.65;4.65;;;5.20;63.00;;;;;;5126114;27;20408;-74
2024/01/07 02:52:23;;;;;;;5.30;4.20;;;5.20;63.00;;;;;;5118761;27;20489;-75
2024/01/07 02:54:49;;;;;;;4.30;3.67;;;5.20;63.00;;;;;;5117960;27;20031;-75
2024/01/07 02:57:14;;;;;;;5.22;4.38;;;5.20;63.00;;;;;;5120707;27;20050;-74
2024/01/07 02:59:40;;;;;;;5.28;4.18;;;5.10;62.80;;;;;;5119920;27;20031;-76
2024/01/07 03:02:06;;;;;;;5.55;4.32;;;5.20;62.80;;;;;;5133655;27;20072;-75
2024/01/07 03:04:32;;;;;;;4.97;4.28;;;5.20;62.80;;;;;;5103581;27;20061;-75
2024/01/07 03:06:58;;;;;;;4.72;3.92;;;5.20;62.80;;;;;;5127131;27;20054;-75
2024/01/07 03:09:24;;;;;;;4.47;3.75;;;5.20;62.70;;;;;;5111396;27;20395;-76
2024/01/07 03:11:50;;;;;;;4.93;3.95;;;5.20;62.70;;;;;;5119917;27;20462;-75
2024/01/07 03:14:20;;;;;;;4.93;3.60;;;5.10;62.50;;;;;;5105784;28;20035;-74
2024/01/07 03:16:45;;;;;;;4.95;3.78;;;5.10;62.50;;;;;;5115768;28;20110;-75
2024/01/07 03:19:11;;;;;;;4.25;3.72;;;5.10;62.50;;;;;;5102504;27;20118;-74
2024/01/07 03:21:38;;;;;;;5.22;3.90;;;5.10;62.50;;;;;;5127654;27;20024;-75
2024/01/07 03:24:04;;;;;;;4.45;3.88;;;5.10;62.40;;;;;;5116052;28;20108;-75
2024/01/07 03:26:33;;;;;;;5.00;3.83;;;5.10;62.40;;;;;;5124933;27;20515;-75
2024/01/07 03:29:00;;;;;;;5.25;3.72;;;5.10;62.30;;;;;;5085056;28;20474;-74
2024/01/07 03:31:26;;;;;;;4.18;3.50;;;5.10;62.90;;;;;;5125745;27;20024;-75
2024/01/07 03:33:52;;;;;;;4.15;3.50;;;5.10;62.20;;;;;;5117281;27;20058;-74
2024/01/07 03:36:18;;;;;;;5.53;4.18;;;5.10;62.20;;;;;;5116866;28;20449;-75
2024/01/07 03:38:43;;;;;;;4.63;3.92;;;5.10;62.10;;;;;;5117247;27;20124;-74
2024/01/07 03:41:15;;;;;;;4.53;3.72;;;5.10;62.10;;;;;;5128874;27;20034;-76
2024/01/07 03:43:40;;;;;;;4.22;3.70;;;5.10;62.10;;;;;;5097758;28;20019;-74
2024/01/07 03:46:06;;;;;;;4.63;3.72;;;5.10;62.10;;;;;;5122590;27;20023;-75
2024/01/07 03:48:32;;;;;;;4.65;4.13;;;5.10;62.00;;;;;;5136516;27;20135;-74
2024/01/07 03:50:58;;;;;;;5.05;3.95;;;5.10;62.00;;;;;;5123044;27;20384;-76
2024/01/07 03:53:23;;;;;;;4.70;3.90;;;5.10;62.00;;;;;;5117640;27;20046;-75
2024/01/07 03:55:49;;;;;;;4.88;3.90;;;5.10;62.00;;;;;;5136261;27;20110;-74
2024/01/07 03:58:15;;;;;;;4.78;3.83;;;5.00;61.90;;;;;;5127968;27;20384;-74
2024/01/07 04:00:41;;;;;;;4.32;3.83;;;5.00;61.90;;;;;;5125400;27;20042;-76
2024/01/07 04:03:06;;;;;;;4.72;3.90;;;5.00;61.90;;;;;;5106787;28;20044;-75
2024/01/07 04:05:33;;;;;;;6.32;3.60;;;5.00;61.80;;;;;;5110687;28;20106;-74
2024/01/07 04:08:01;;;;;;;4.80;4.00;;;5.00;61.90;;;;;;5097975;28;20062;-75
2024/01/07 04:10:27;;;;;;;3.92;3.40;;;5.00;61.90;;;;;;5099322;28;20389;-74
2024/01/07 04:12:52;;;;;;;4.00;3.53;;;5.00;61.80;;;;;;5105399;28;20028;-75
2024/01/07 04:15:18;;;;;;;4.22;3.50;;;5.00;61.80;;;;;;5103163;28;20489;-75
2024/01/07 04:17:44;;;;;;;6.05;3.70;;;5.00;61.80;;;;;;5103927;28;20031;-74
2024/01/07 04:20:14;;;;;;;3.75;3.25;;;5.00;61.70;;;;;;5102974;28;20028;-74
2024/01/07 04:22:39;;;;;;;5.32;3.40;;;5.00;61.70;;;;;;5105264;28;20031;-74
2024/01/07 04:25:10;;;;;;;4.35;3.60;;;5.00;61.60;;;;;;5096086;28;20497;-75
2024/01/07 04:27:36;;;;;;;5.28;3.72;;;5.00;61.50;;;;;;5094457;28;20031;-74
2024/01/07 04:30:03;;;;;;;4.22;3.70;;;4.90;61.50;;;;;;5096376;28;20027;-74
2024/01/07 04:32:29;;;;;;;6.40;4.00;;;4.90;61.50;;;;;;5097375;28;20024;-77
2024/01/07 04:34:55;;;;;;;3.92;3.35;;;4.90;61.40;;;;;;5100629;28;20058;-74
2024/01/07 04:37:21;;;;;;;5.80;4.97;;;4.90;61.50;;;;;;5102821;28;20120;-74
2024/01/07 04:39:47;;;;;;;3.95;3.55;;;4.90;61.40;;;;;;5105843;28;20537;-74
2024/01/07 04:42:13;;;;;;;5.25;4.00;;;4.90;61.40;;;;;;5094946;28;20470;-75
2024/01/07 04:44:39;;;;;;;3.67;3.05;;;4.90;61.30;;;;;;5099358;28;20085;-76
2024/01/07 04:47:04;;;;;;;5.05;4.00;;;4.90;61.30;;;;;;5100097;28;20060;-75
2024/01/07 04:49:30;;;;;;;5.13;3.60;;;4.90;61.30;;;;;;5094074;28;20073;-74
2024/01/07 04:51:56;;;;;;;4.88;3.85;;;4.80;61.10;;;;;;5098635;28;20055;-74
2024/01/07 04:54:22;;;;;;;4.82;3.60;;;4.80;61.10;;;;;;5101714;28;20032;-74
2024/01/07 04:56:48;;;;;;;4.72;3.67;;;4.80;61.00;;;;;;5093697;28;20389;-75
2024/01/07 04:59:13;;;;;;;4.30;3.70;;;4.70;61.00;;;;;;5093439;28;20505;-74
2024/01/07 05:01:39;;;;;;;4.55;3.80;;;4.70;61.00;;;;;;5099626;28;20028;-74
2024/01/07 05:04:05;;;;;;;5.18;3.80;;;4.70;61.00;;;;;;5110558;28;20048;-75
2024/01/07 05:06:31;;;;;;;3.88;3.45;;;4.70;61.00;;;;;;5108054;28;20103;-75
2024/01/07 05:08:56;;;;;;;3.88;3.08;;;4.70;61.00;;;;;;5097890;28;20012;-75
2024/01/07 05:11:22;;;;;;;4.97;3.63;;;4.70;61.60;;;;;;5110219;28;20034;-75
2024/01/07 05:13:48;;;;;;;4.13;3.53;;;4.70;61.00;;;;;;5113497;28;20045;-75
2024/01/07 05:16:23;;;;;;;4.85;3.70;;;4.80;61.00;;;;;;5098406;28;20465;-74
2024/01/07 05:18:48;;;;;;;;;;;4.70;61.00;;;;;;5108077;28;20031;-73
2024/01/07 05:21:20;;;;;;;3.97;3.42;;;4.70;60.70;;;;;;5112451;28;19915;-73
2024/01/07 05:23:46;;;;;;;5.22;4.03;;;4.70;60.80;;;;;;5097770;28;20024;-74
2024/01/07 05:26:11;;;;;;;4.22;3.45;;;4.70;60.70;;;;;;5096169;28;20039;-75
2024/01/07 05:28:37;;;;;;;4.10;3.38;;;4.70;60.70;;;;;;5112369;28;20470;-74
2024/01/07 05:31:03;;;;;;;4.30;3.22;;;4.70;60.70;;;;;;5092345;28;20024;-73
2024/01/07 05:33:29;;;;;;;4.45;3.53;;;4.70;60.70;;;;;;5103307;28;20053;-75
2024/01/07 05:35:55;;;;;;;3.85;3.30;;;4.70;60.60;;;;;;5102352;28;20020;-74
2024/01/07 05:38:21;;;;;;;3.88;3.20;;;4.60;60.50;;;;;;5113864;28;20024;-74
2024/01/07 05:40:46;;;;;;;4.53;3.75;;;4.60;60.50;;;;;;5106796;28;20099;-75
2024/01/07 05:43:12;;;;;;;4.68;3.67;;;4.60;60.60;;;;;;5110383;28;20397;-74
2024/01/07 05:45:38;;;;;;;3.70;3.30;;;4.60;60.50;;;;;;5106842;28;20077;-75
2024/01/07 05:48:04;;;;;;;3.53;3.05;;;4.60;60.50;;;;;;5112588;28;20496;-74
2024/01/07 05:50:29;;;;;;;5.22;3.90;;;4.60;60.40;;;;;;5104710;28;20027;-75
2024/01/07 05:52:55;;;;;;;3.78;3.35;;;4.70;60.50;;;;;;5106785;28;20469;-74
2024/01/07 05:55:21;;;;;;;3.38;3.08;;;4.70;60.40;;;;;;5112034;28;20039;-76
2024/01/07 05:57:47;;;;;;;4.45;3.50;;;4.70;60.40;;;;;;5108546;28;20031;-75
2024/01/07 06:00:13;;;;;;;4.05;3.42;;;4.70;60.30;;;;;;5111640;28;20028;-76
2024/01/07 06:02:39;;;;;;;4.32;3.20;;;4.60;60.10;;;;;;5098855;28;20024;-73
2024/01/07 06:05:06;;;;;;;3.45;3.15;;;4.60;60.10;;;;;;5127095;27;20028;-73
2024/01/07 06:07:31;;;;;;;4.85;3.70;;;4.60;60.10;;;;;;5126815;27;20031;-75
2024/01/07 06:09:58;;;;;;;4.40;3.60;;;4.60;60.10;;;;;;5119846;27;20031;-75
2024/01/07 06:12:24;;;;;;;5.25;4.57;;;4.60;60.10;;;;;;5118619;27;20186;-74
2024/01/07 06:14:50;;;;;;;4.30;3.53;;;4.60;60.10;;;;;;5124646;27;20140;-74
2024/01/07 06:17:16;;;;;;;3.47;3.10;;;4.60;60.10;;;;;;5123228;27;20028;-75
2024/01/07 06:19:42;;;;;;;3.72;3.10;;;4.60;60.10;;;;;;5113688;28;20019;-74
2024/01/07 06:22:07;;;;;;;3.92;3.30;;;4.60;60.00;;;;;;5125588;27;20106;-76
2024/01/07 06:24:33;;;;;;;4.20;3.53;;;4.60;60.00;;;;;;5106241;27;20409;-77
2024/01/07 06:26:59;;;;;;;3.65;3.30;;;4.60;59.80;;;;;;5119782;27;20546;-75
2024/01/07 06:29:25;;;;;;;3.88;3.20;;;4.50;59.70;;;;;;5119049;27;20487;-76
2024/01/07 06:31:51;;;;;;;3.60;3.13;;;4.50;59.80;;;;;;5130632;27;20023;-75
2024/01/07 06:34:17;;;;;;;4.50;3.75;;;4.50;59.80;;;;;;5117219;27;20031;-74
2024/01/07 06:36:42;;;;;;;4.85;3.50;;;4.50;59.70;;;;;;5134207;27;20076;-74
2024/01/07 06:39:08;;;;;;;4.85;3.83;;;4.50;59.80;;;;;;5099920;28;20020;-75
2024/01/07 06:41:35;;;;;;;5.15;4.00;;;4.50;59.70;;;;;;5122673;27;20039;-75
2024/01/07 06:44:02;;;;;;;4.32;3.33;;;4.50;59.60;;;;;;5128918;27;20036;-75
2024/01/07 06:46:27;;;;;;;5.10;3.90;;;4.50;59.60;;;;;;5116941;27;20027;-75
2024/01/07 06:48:53;;;;;;;4.15;3.25;;;4.50;60.10;;;;;;5106719;27;20099;-75
2024/01/07 06:51:19;;;;;;;3.70;3.33;;;4.50;59.40;;;;;;5125007;27;20038;-75
2024/01/07 06:53:44;;;;;;;5.18;3.13;;;4.50;59.50;;;;;;5126871;27;20092;-77
2024/01/07 06:56:10;;;;;;;3.55;3.22;;;4.40;59.50;;;;;;5113753;28;20160;-75
2024/01/07 06:58:36;;;;;;;3.83;3.30;;;4.50;59.50;;;;;;5116841;27;20039;-75
2024/01/07 07:01:02;;;;;;;4.13;3.50;;;4.50;59.50;;;;;;5105677;27;20029;-75
2024/01/07 07:03:28;;;;;;;3.90;3.30;;;4.50;59.40;;;;;;5131902;27;20049;-75
2024/01/07 07:05:54;;;;;;;4.45;3.53;;;4.40;59.30;;;;;;5104498;28;20036;-75
2024/01/07 07:08:19;;;;;;;4.28;3.45;;;4.40;59.20;;;;;;5130054;27;20031;-76
2024/01/07 07:10:45;;;;;;;3.42;3.10;;;4.40;59.20;;;;;;5107380;27;20030;-74
2024/01/07 07:13:12;;;;;;;4.80;3.58;;;4.50;59.20;;;;;;5137156;27;20023;-75
2024/01/07 07:15:37;;;;;;;3.78;3.25;;;4.40;59.10;;;;;;5106414;28;20480;-77
2024/01/07 07:18:04;;;;;;;5.15;3.15;;;4.40;59.10;;;;;;5116835;28;20023;-74
2024/01/07 07:20:29;;;;;;;4.13;3.30;;;4.40;59.10;;;;;;5117369;27;20024;-76
2024/01/07 07:22:55;;;;;;;4.70;3.50;;;4.40;59.10;;;;;;5099543;27;20042;-79
2024/01/07 07:25:21;;;;;;;4.20;3.30;;;4.50;59.10;;;;;;5125299;27;20473;-75
2024/01/07 07:27:47;;;;;;;4.55;3.15;;;4.50;59.00;;;;;;5097474;28;20110;-75
2024/01/07 07:30:13;;;;;;;3.90;3.10;;;4.50;59.00;;;;;;5116323;28;20376;-74
2024/01/07 07:32:41;;;;;;;3.67;3.05;;;4.50;58.90;;;;;;5123930;27;20028;-73
2024/01/07 07:35:08;;;;;;;4.10;3.15;;;4.50;58.90;;;;;;5115265;28;20060;-72
2024/01/07 07:37:33;;;;;;;4.10;3.30;;;4.50;58.80;;;;;;5116884;27;20361;-70
2024/01/07 07:39:59;;;;;;;3.90;3.30;;;4.50;58.80;;;;;;5136770;27;20124;-68
2024/01/07 07:42:25;;;;;;;5.03;3.10;;;4.50;58.70;;;;;;5136675;27;20088;-68
2024/01/07 07:44:51;;;;;;;4.28;3.10;;;4.50;58.80;;;;;;5118171;27;20373;-71
2024/01/07 07:47:16;;;;;;;3.70;3.15;;;4.50;58.70;;;;;;5117977;27;20372;-72
2024/01/07 07:49:42;;;;;;;3.83;3.42;;;4.40;58.60;;;;;;5123495;27;20530;-70
2024/01/07 07:52:11;;;;;;;3.95;3.17;;;4.40;58.60;;;;;;5115947;28;20156;-70
2024/01/07 07:54:40;;;;;;;4.10;3.42;;;4.40;58.70;;;;;;5115358;28;20035;-72
2024/01/07 07:57:06;;;;;;;3.72;3.30;;;4.40;58.70;;;;;;5098342;28;20028;-74
2024/01/07 07:59:31;;;;;;;3.88;3.47;;;4.40;58.60;;;;;;5115072;28;20024;-72
2024/01/07 08:01:57;;;;;;;3.67;3.30;;;4.40;58.70;;;;;;5101227;27;20019;-74
2024/01/07 08:04:23;;;;;;;6.78;3.28;;;4.40;58.60;;;;;;5109858;28;20039;-74
2024/01/07 08:06:49;;;;;;;6.28;3.50;;;4.50;58.80;;;;;;5108040;28;20034;-72
2024/01/07 08:09:15;;;;;;;4.55;3.17;;;4.50;58.70;;;;;;5097966;28;20393;-72
2024/01/07 08:11:40;;;;;;;4.18;3.50;;;4.50;59.20;;;;;;5114651;28;20019;-73
2024/01/07 08:14:06;;;;;;;3.83;3.20;;;4.50;58.60;;;;;;5096610;28;20130;-71
2024/01/07 08:16:32;;;;;;;4.38;3.58;;;4.50;58.60;;;;;;5096530;28;20110;-70
2024/01/07 08:18:58;;;;;;;5.03;3.60;;;4.50;58.60;;;;;;5115792;27;20037;-71
2024/01/07 08:21:24;;;;;;;3.67;3.30;;;4.50;58.70;;;;;;5106444;28;20035;-72
2024/01/07 08:23:50;;;;;;;3.78;3.38;;;4.50;58.60;;;;;;5123495;27;20511;-72
2024/01/07 08:26:20;;;;;;;3.90;3.30;;;4.50;58.60;;;;;;5113668;27;20047;-70
2024/01/07 08:28:46;;;;;;;3.92;3.15;;;4.50;58.70;;;;;;5109178;27;20380;-70
2024/01/07 08:31:11;;;;;;;5.05;3.72;;;4.60;58.60;;;;;;5134166;27;20023;-69
2024/01/07 08:33:37;;;;;;;4.97;3.47;;;4.60;58.60;;;;;;5124038;27;20529;-77
2024/01/07 08:36:04;;;;;;;4.07;3.33;;;4.60;58.50;;;;;;5100642;27;20066;-71
2024/01/07 08:38:30;;;;;;;3.35;3.00;;;4.60;58.50;;;;;;5132931;27;20031;-72
2024/01/07 08:40:56;;;;;;;3.58;2.97;;;4.70;58.50;;;;;;5118755;27;20023;-73
2024/01/07 08:43:22;;;;;;;4.45;3.30;;;4.70;58.50;;;;;;5122988;27;20024;-72
2024/01/07 08:45:48;;;;;;;4.03;3.55;;;4.70;58.40;;;;;;5096329;28;20019;-71
2024/01/07 08:48:14;;;;;;;3.42;3.05;;;4.80;58.40;;;;;;5132180;27;20255;-71
2024/01/07 08:50:39;;;;;;;3.28;2.97;;;4.80;58.40;;;;;;5132417;27;20096;-75
2024/01/07 08:53:05;;;;;;;3.55;3.00;;;4.80;58.30;;;;;;5122592;27;20023;-72
2024/01/07 08:55:31;;;;;;;4.20;3.47;;;4.80;58.30;;;;;;5116837;27;20073;-73
2024/01/07 08:57:58;;;;;;;4.13;3.60;;;4.80;58.20;;;;;;5123743;27;20022;-72
2024/01/07 09:00:26;;;;;;;4.47;3.58;;;4.80;58.20;;;;;;5129222;27;20031;-72
2024/01/07 09:02:52;;;;;;;4.40;3.47;;;4.90;58.30;;;;;;5126693;27;20019;-74
2024/01/07 09:05:19;;;;;;;4.57;3.70;;;4.90;58.80;;;;;;5104192;28;20444;-72
2024/01/07 09:07:44;;;;;;;3.85;3.40;;;4.90;58.20;;;;;;5114751;28;20034;-74
2024/01/07 09:10:11;;;;;;;4.32;3.47;;;4.90;58.10;;;;;;5116387;28;20114;-73
2024/01/07 09:12:37;;;;;;;3.75;3.40;;;4.90;58.00;;;;;;5135144;27;20426;-74
2024/01/07 09:15:07;;;;;;;3.58;3.20;;;4.90;58.00;;;;;;5136010;27;20397;-72
2024/01/07 09:17:37;;;;;;;4.07;3.40;;;5.00;58.00;;;;;;5117232;27;20113;-70
2024/01/07 09:20:08;;;;;;;3.78;3.33;;;5.00;57.90;;;;;;5111173;28;20384;-71
2024/01/07 09:22:34;;;;;;;3.88;3.30;;;5.00;57.80;;;;;;5096309;28;20028;-72
2024/01/07 09:25:05;;;;;;;4.43;3.58;;;5.00;57.70;;;;;;5097208;28;20038;-73
2024/01/07 09:27:32;;;;;;;3.63;3.17;;;5.00;57.70;;;;;;5096697;28;20024;-72
2024/01/07 09:29:58;;;;;;;4.30;3.40;;;5.10;57.70;;;;;;5101983;28;20423;-71
2024/01/07 09:32:24;;;;;;;4.32;3.60;;;5.10;57.60;;;;;;5112882;28;20028;-70
2024/01/07 09:34:49;;;;;;;4.35;3.40;;;5.10;57.50;;;;;;5110546;28;20038;-73
2024/01/07 09:37:16;;;;;;;4.25;3.53;;;5.10;57.40;;;;;;5113924;28;20024;-73
2024/01/07 09:39:44;;;;;;;6.38;3.40;;;5.00;57.40;;;;;;5095533;28;20056;-71
2024/01/07 09:42:19;;;;;;;4.20;3.50;;;5.00;57.50;;;;;;5099959;28;20069;-72
2024/01/07 09:44:45;;;;;;;3.53;3.13;;;5.00;57.40;;;;;;5112624;28;20034;-70
2024/01/07 09:47:13;;;;;;;4.00;3.38;;;5.00;57.30;;;;;;5113944;28;20103;-74
2024/01/07 09:49:42;;;;;;;3.65;3.17;;;5.10;57.40;;;;;;5119911;28;20028;-70
2024/01/07 09:52:10;;;;;;;4.10;3.63;;;5.10;57.30;;;;;;5134254;28;20023;-74
2024/01/07 09:54:38;;;;;;;3.72;3.08;;;5.10;57.20;;;;;;5114042;28;20057;-76
2024/01/07 09:57:08;;;;;;;4.22;3.75;;;5.10;57.20;;;;;;5112866;28;20054;-74
2024/01/07 09:59:38;;;;;;;3.80;3.40;;;5.00;57.00;;;;;;5113366;28;20038;-72
2024/01/07 10:02:05;;;;;;;4.75;3.80;;;5.00;57.00;;;;;;5109887;28;20027;-72
2024/01/07 10:04:31;;;;;;;4.85;3.92;;;5.00;57.10;;;;;;5099153;28;20052;-76
2024/01/07 10:06:57;;;;;;;5.82;3.88;;;5.00;57.00;;;;;;5096790;28;20457;-74
2024/01/07 10:09:26;;;;;;;4.63;3.92;;;5.00;57.00;;;;;;5118427;27;20122;-76
2024/01/07 10:11:52;;;;;;;4.80;3.85;;;4.90;56.90;;;;;;5098513;28;20031;-74
2024/01/07 10:14:25;;;;;;;5.38;4.15;;;4.90;57.10;;;;;;5095672;28;20035;-73
2024/01/07 10:16:52;;;;;;;4.70;3.83;;;4.80;57.00;;;;;;5095517;28;20119;-73
2024/01/07 10:19:22;;;;;;;4.50;3.67;;;4.90;57.10;;;;;;5095429;28;20054;-74
2024/01/07 10:22:04;;;;;;;3.92;3.50;;;4.80;57.10;;;;;;5113310;28;20097;-72
2024/01/07 10:24:39;;;;;;;4.70;3.88;;;4.80;57.00;;;;;;5114563;28;20035;-74
2024/01/07 10:27:05;;;;;;;5.15;3.92;;;4.80;57.00;;;;;;5099358;28;20038;-72
2024/01/07 10:29:31;;;;;;;3.97;3.58;;;4.80;57.00;;;;;;5117410;28;20032;-70
2024/01/07 10:32:03;;;;;;;3.70;3.30;;;4.80;57.00;;;;;;5115919;28;20023;-73
2024/01/07 10:34:32;;;;;;;4.55;3.72;;;4.70;56.90;;;;;;5115482;27;20047;-75
2024/01/07 10:37:02;;;;;;;4.30;3.60;;;4.70;57.00;;;;;;5102443;27;20024;-74
2024/01/07 10:39:29;;;;;;;5.05;4.07;;;4.70;57.00;;;;;;5098666;28;20032;-75
2024/01/07 10:41:58;;;;;;;5.40;4.13;;;4.70;56.90;;;;;;5116834;27;20034;-74
2024/01/07 10:44:26;;;;;;;5.20;4.10;;;4.70;56.90;;;;;;5098974;28;20100;-74
2024/01/07 10:46:55;;;;;;;4.47;3.75;;;4.80;56.90;;;;;;5130805;27;20079;-74
2024/01/07 10:49:22;;;;;;;5.15;3.80;;;4.70;56.90;;;;;;5133563;27;20027;-73
2024/01/07 10:52:07;;;;;;;4.88;3.90;;;4.70;56.80;;;;;;5103227;28;20055;-78
2024/01/07 10:54:36;;;;;;;;;;;4.70;56.80;;;;;;5102558;27;20454;-76
2024/01/07 10:57:21;;;;;;;4.70;3.90;;;4.70;56.40;;;;;;5118478;27;19908;-77
2024/01/07 10:59:49;;;;;;;5.28;3.90;;;4.70;56.70;;;;;;5096951;28;20385;-77
2024/01/07 11:02:15;;;;;;;4.00;3.58;;;4.70;56.70;;;;;;5118359;27;20031;-80
2024/01/07 11:04:56;;;;;;;5.25;4.25;;;4.70;56.70;;;;;;5117714;27;20172;-77
2024/01/07 11:07:44;;;;;;;4.97;3.80;;;4.70;56.60;;;;;;5096943;28;20027;-77
2024/01/07 11:10:31;;;;;;;4.90;3.80;;;4.70;56.60;;;;;;5102438;27;20130;-76
2024/01/07 11:13:00;;;;;;;5.25;4.25;;;4.70;56.60;;;;;;5100326;27;20488;-77
2024/01/07 11:15:47;;;;;;;4.85;3.92;;;4.70;56.60;;;;;;5113998;27;20031;-74
2024/01/07 11:18:20;;;;;;;5.28;3.70;;;4.70;56.40;;;;;;5120961;27;20462;-75
2024/01/07 11:20:49;;;;;;;4.55;3.90;;;4.60;56.40;;;;;;5113157;28;20028;-77
2024/01/07 11:23:32;;;;;;;5.28;4.18;;;4.60;56.50;;;;;;5115060;27;20057;-76
2024/01/07 11:25:59;;;;;;;5.18;4.10;;;4.60;56.40;;;;;;5096879;27;20023;-75
2024/01/07 11:28:50;;;;;;;4.88;3.90;;;4.60;56.40;;;;;;5116576;27;20023;-73
2024/01/07 11:31:50;;;;;;;4.75;3.83;;;4.50;56.40;;;;;;5097641;28;21318;-75
2024/01/07 11:34:43;;;;;;;5.38;3.80;;;4.50;56.40;;;;;;5068024;28;20047;-76
2024/01/07 11:37:13;;;;;;;4.45;3.88;;;4.50;56.40;;;;;;5120994;27;20107;-75
2024/01/07 11:39:44;;;;;;;4.95;3.78;;;4.50;56.50;;;;;;5114196;28;20038;-75
2024/01/07 11:42:11;;;;;;;4.80;4.25;;;4.40;56.30;;;;;;5116178;28;20058;-75
2024/01/07 11:44:38;;;;;;;4.50;3.70;;;4.40;56.30;;;;;;5099300;27;20035;-76
2024/01/07 11:47:06;;;;;;;4.88;4.10;;;4.30;56.30;;;;;;5112677;27;20122;-76
2024/01/07 11:49:33;;;;;;;4.93;4.00;;;4.30;56.30;;;;;;5117243;27;20641;-75
2024/01/07 11:51:59;;;;;;;7.20;4.45;;;4.30;56.40;;;;;;5133433;27;20111;-77
2024/01/07 11:54:25;;;;;;;4.93;4.10;;;4.30;56.30;;;;;;5115207;27;20456;-78
2024/01/07 11:56:51;;;;;;;4.80;4.20;;;4.30;56.30;;;;;;5127543;27;20031;-77
2024/01/07 11:59:17;;;;;;;4.65;3.92;;;4.30;56.40;;;;;;5117728;27;20028;-76
2024/01/07 12:01:42;;;;;;;5.40;4.43;;;4.30;56.40;;;;;;5135701;27;20114;-72
2024/01/07 12:04:09;;;;;;;4.80;4.25;;;4.30;56.40;;;;;;5135194;27;20047;-73
2024/01/07 12:06:35;;;;;;;5.93;4.60;;;4.30;56.40;;;;;;5097235;28;20397;-75
2024/01/07 12:09:01;;;;;;;5.28;3.85;;;4.30;56.30;;;;;;5126182;27;20022;-77
2024/01/07 12:11:27;;;;;;;5.10;4.40;;;4.30;56.40;;;;;;5131138;27;20026;-77
2024/01/07 12:13:53;;;;;;;4.40;3.80;;;4.30;56.30;;;;;;5116902;27;20035;-76
2024/01/07 12:16:20;;;;;;;4.47;3.70;;;4.30;56.90;;;;;;5113930;28;20023;-76
2024/01/07 12:18:46;;;;;;;4.68;3.95;;;4.30;56.40;;;;;;5124258;27;20023;-77
2024/01/07 12:21:20;;;;;;;5.32;3.95;;;4.30;56.30;;;;;;5135672;27;20106;-75
2024/01/07 12:23:50;;;;;;;4.10;3.70;;;4.30;56.30;;;;;;5118212;27;20119;-76
2024/01/07 12:26:16;;;;;;;5.35;3.97;;;4.30;56.30;;;;;;5116793;27;20103;-77
2024/01/07 12:28:42;;;;;;;5.25;4.05;;;4.20;56.30;;;;;;5133843;27;20422;-76
2024/01/07 12:31:09;;;;;;;4.63;3.75;;;4.20;56.30;;;;;;5116991;27;20027;-75
2024/01/07 12:33:37;;;;;;;5.30;4.20;;;4.20;56.30;;;;;;5130771;27;20036;-76
2024/01/07 12:36:04;;;;;;;4.78;3.83;;;4.30;56.40;;;;;;5107746;27;20461;-77
2024/01/07 12:38:30;;;;;;;4.90;4.20;;;4.20;56.20;;;;;;5127879;27;20035;-76
2024/01/07 12:40:56;;;;;;;5.78;3.72;;;4.20;56.20;;;;;;5127213;27;20031;-76
2024/01/07 12:43:22;;;;;;;4.70;4.05;;;4.20;56.20;;;;;;5122558;27;20106;-76
2024/01/07 12:45:49;;;;;;;5.22;3.90;;;4.20;56.20;;;;;;5131321;27;20054;-74
2024/01/07 12:48:15;;;;;;;5.45;4.53;;;4.20;56.20;;;;;;5114322;27;20027;-75
2024/01/07 12:50:41;;;;;;;5.53;4.35;;;4.10;56.20;;;;;;5113672;28;20047;-75
2024/01/07 12:53:07;;;;;;;5.25;4.07;;;4.10;56.20;;;;;;5115829;27;20055;-76
2024/01/07 12:55:33;;;;;;;4.82;4.32;;;4.10;56.20;;;;;;5114417;27;20116;-72
2024/01/07 12:57:59;;;;;;;4.75;4.00;;;4.10;56.20;;;;;;5130564;27;20023;-72